Time;durP1;ratioP1;P1;durP2;ratioP2;P2;SDS_P1;SDS_P2;PMS_P1;PMS_P2;Temp;Humidity;BMP_temperature;BMP_pressure;BME280_temperature;BME280_humidity;BME280_pressure;Samples;Min_cycle;Max_cycle;Signal;HPM_P1;HPM_P2
2023/07/12 00:01:11;;;;;;;91.78;54.50;;;21.70;71.30;;;;;;4970260;28;95266;-43
2023/07/12 00:03:36;;;;;;;91.82;54.40;;;21.70;71.50;;;;;;4980197;28;97556;-44
2023/07/12 00:06:04;;;;;;;92.90;54.38;;;21.70;71.60;;;;;;4983597;28;95731;-44
2023/07/12 00:08:31;;;;;;;92.22;54.33;;;21.60;71.70;;;;;;4982980;28;95313;-45
2023/07/12 00:10:58;;;;;;;91.10;54.17;;;21.60;71.80;;;;;;4976022;28;95446;-43
2023/07/12 00:13:24;;;;;;;92.03;54.30;;;21.60;72.00;;;;;;4978963;28;95083;-44
2023/07/12 00:15:51;;;;;;;91.10;54.33;;;21.60;72.00;;;;;;4978158;28;95041;-44
2023/07/12 00:18:25;;;;;;;90.57;54.05;;;21.50;72.10;;;;;;4978705;28;94997;-42
2023/07/12 00:20:53;;;;;;;89.90;54.13;;;21.50;72.20;;;;;;4976544;28;95706;-43
2023/07/12 00:23:19;;;;;;;93.35;54.53;;;21.50;72.60;;;;;;4968962;28;95071;-42
2023/07/12 00:25:47;;;;;;;89.75;53.83;;;21.40;72.50;;;;;;4975067;28;95837;-44
2023/07/12 00:28:24;;;;;;;90.75;53.95;;;21.40;72.80;;;;;;4973000;28;96074;-46
2023/07/12 00:30:53;;;;;;;89.93;54.00;;;21.40;72.80;;;;;;4973225;28;95028;-44
2023/07/12 00:33:19;;;;;;;89.40;53.90;;;21.40;72.70;;;;;;4977266;28;95503;-45
2023/07/12 00:35:45;;;;;;;90.32;54.00;;;21.40;72.80;;;;;;4972988;28;97096;-44
2023/07/12 00:38:21;;;;;;;91.38;54.05;;;21.30;72.60;;;;;;4969779;28;94263;-43
2023/07/12 00:41:01;;;;;;;89.35;53.85;;;21.30;72.60;;;;;;4973762;28;95295;-43
2023/07/12 00:43:45;;;;;;;89.88;53.83;;;21.30;72.80;;;;;;4974861;28;96574;-44
2023/07/12 00:46:37;;;;;;;89.78;53.90;;;21.30;73.00;;;;;;4973263;28;95699;-43
2023/07/12 00:49:03;;;;;;;88.43;53.35;;;21.20;73.00;;;;;;4973536;28;94894;-43
2023/07/12 00:51:56;;;;;;;90.72;53.65;;;21.20;73.50;;;;;;4974232;28;95535;-46
2023/07/12 00:54:26;;;;;;;91.05;54.22;;;21.20;73.10;;;;;;4969480;28;95405;-45
2023/07/12 00:56:52;;;;;;;90.90;53.95;;;21.10;73.20;;;;;;4975532;28;95981;-43
2023/07/12 00:59:24;;;;;;;89.72;53.97;;;21.20;73.30;;;;;;4975095;28;94693;-44
2023/07/12 01:02:00;;;;;;;90.82;54.08;;;21.10;73.20;;;;;;4970193;28;95106;-43
2023/07/12 01:04:37;;;;;;;90.28;53.60;;;21.10;73.40;;;;;;4969347;28;93968;-45
2023/07/12 01:07:03;;;;;;;89.65;54.00;;;21.10;73.60;;;;;;4974311;28;99424;-45
2023/07/12 01:09:29;;;;;;;90.00;54.15;;;21.10;75.00;;;;;;4973826;28;94790;-42
2023/07/12 01:11:56;;;;;;;91.22;54.13;;;21.10;74.00;;;;;;4972772;28;97378;-41
2023/07/12 01:14:21;;;;;;;89.55;54.10;;;21.00;74.20;;;;;;4980967;28;96962;-43
2023/07/12 01:16:56;;;;;;;90.45;54.08;;;21.00;74.40;;;;;;4976534;28;94820;-42
2023/07/12 01:19:22;;;;;;;90.60;54.38;;;21.00;74.00;;;;;;4978693;28;94745;-42
2023/07/12 01:21:50;;;;;;;89.95;54.08;;;21.00;74.40;;;;;;4977291;28;95451;-43
2023/07/12 01:24:17;;;;;;;90.35;54.03;;;20.90;75.60;;;;;;4969325;28;94955;-44
2023/07/12 01:26:46;;;;;;;89.57;53.88;;;20.90;75.20;;;;;;4977649;28;94906;-43
2023/07/12 01:29:12;;;;;;;89.45;53.90;;;20.90;74.10;;;;;;4975584;28;94258;-42
2023/07/12 01:31:38;;;;;;;90.53;54.08;;;20.90;74.20;;;;;;4971390;28;95070;-42
2023/07/12 01:34:05;;;;;;;89.70;53.80;;;20.80;74.50;;;;;;4972766;28;94751;-42
2023/07/12 01:36:32;;;;;;;89.68;53.88;;;20.90;74.30;;;;;;4968699;28;96760;-42
2023/07/12 01:38:59;;;;;;;90.15;53.67;;;20.80;74.40;;;;;;4968993;28;95440;-42
2023/07/12 01:41:25;;;;;;;91.05;54.25;;;20.80;74.90;;;;;;4969520;28;95178;-43
2023/07/12 01:43:52;;;;;;;88.55;53.70;;;20.80;76.00;;;;;;4974327;28;95611;-43
2023/07/12 01:46:18;;;;;;;91.40;53.80;;;20.80;74.80;;;;;;4973211;28;95497;-43
2023/07/12 01:48:44;;;;;;;89.93;54.10;;;20.80;75.40;;;;;;4981919;28;96226;-43
2023/07/12 01:51:10;;;;;;;91.80;53.88;;;20.80;75.00;;;;;;4971279;28;94755;-43
2023/07/12 01:53:36;;;;;;;89.95;54.15;;;20.80;75.00;;;;;;4970406;28;100084;-44
2023/07/12 01:56:05;;;;;;;91.45;54.05;;;20.80;74.10;;;;;;4966668;28;95924;-43
2023/07/12 01:58:32;;;;;;;90.93;54.03;;;20.80;75.20;;;;;;4974334;28;94973;-42
2023/07/12 02:00:58;;;;;;;88.88;53.92;;;20.80;74.50;;;;;;4969070;28;96575;-42
2023/07/12 02:03:25;;;;;;;89.90;53.67;;;20.70;75.40;;;;;;4974224;28;95098;-44
2023/07/12 02:05:51;;;;;;;92.40;53.97;;;20.70;74.90;;;;;;4974848;28;95020;-43
2023/07/12 02:08:16;;;;;;;90.28;54.15;;;20.70;74.30;;;;;;4976207;28;95076;-43
2023/07/12 02:10:42;;;;;;;89.13;53.97;;;20.70;76.10;;;;;;4978291;28;94747;-45
2023/07/12 02:13:08;;;;;;;88.93;53.85;;;20.70;75.70;;;;;;4971985;28;95852;-43
2023/07/12 02:15:34;;;;;;;89.03;54.08;;;20.70;74.70;;;;;;4977125;28;94557;-42
2023/07/12 02:18:00;;;;;;;89.18;53.97;;;20.60;74.80;;;;;;4972212;28;94134;-45
2023/07/12 02:20:26;;;;;;;90.32;54.00;;;20.60;74.60;;;;;;4967887;28;95067;-46
2023/07/12 02:22:52;;;;;;;90.10;53.92;;;20.60;77.70;;;;;;4971425;28;94593;-42
2023/07/12 02:25:20;;;;;;;90.38;53.60;;;20.60;76.20;;;;;;4977265;28;95725;-43
2023/07/12 02:27:46;;;;;;;89.53;54.03;;;20.60;75.30;;;;;;4977615;28;99714;-43
2023/07/12 02:30:16;;;;;;;91.90;53.63;;;20.60;74.70;;;;;;4974399;28;94767;-43
2023/07/12 02:32:43;;;;;;;91.47;54.03;;;20.60;74.70;;;;;;4971921;28;96402;-43
2023/07/12 02:35:09;;;;;;;90.45;54.03;;;20.60;74.60;;;;;;4972557;28;95363;-44
2023/07/12 02:37:35;;;;;;;88.53;53.83;;;20.60;74.80;;;;;;4974276;28;95005;-42
2023/07/12 02:40:00;;;;;;;89.97;54.17;;;20.60;74.80;;;;;;4975476;28;95538;-42
2023/07/12 02:42:26;;;;;;;91.90;53.95;;;20.60;75.70;;;;;;4971286;28;95067;-44
2023/07/12 02:44:52;;;;;;;89.95;54.30;;;20.60;74.90;;;;;;4974052;28;94943;-44
2023/07/12 02:47:17;;;;;;;89.10;54.00;;;20.60;75.30;;;;;;4975119;28;94898;-44
2023/07/12 02:49:43;;;;;;;88.70;53.85;;;20.60;74.90;;;;;;4980166;28;96386;-43
2023/07/12 02:52:09;;;;;;;89.43;53.85;;;20.50;74.80;;;;;;4970254;28;94786;-42
2023/07/12 02:54:35;;;;;;;90.80;53.75;;;20.60;75.80;;;;;;4968723;28;95053;-43
2023/07/12 02:57:03;;;;;;;89.57;53.83;;;20.60;75.40;;;;;;4977758;28;94704;-43
2023/07/12 02:59:29;;;;;;;90.53;54.15;;;20.50;74.60;;;;;;4971039;28;99236;-44
2023/07/12 03:01:54;;;;;;;90.07;54.17;;;20.50;75.40;;;;;;4976069;28;94738;-43
2023/07/12 03:04:21;;;;;;;88.68;53.83;;;20.50;76.00;;;;;;4967499;28;95243;-43
2023/07/12 03:06:47;;;;;;;90.15;54.28;;;20.50;74.80;;;;;;4972678;28;94357;-43
2023/07/12 03:09:13;;;;;;;90.35;53.92;;;20.50;76.60;;;;;;4967276;28;95119;-44
2023/07/12 03:11:39;;;;;;;90.63;53.88;;;20.50;74.50;;;;;;4971488;28;99537;-46
2023/07/12 03:14:06;;;;;;;90.10;53.78;;;20.50;75.40;;;;;;4976561;28;95851;-45
2023/07/12 03:16:32;;;;;;;88.72;53.72;;;20.50;75.20;;;;;;4971550;28;95184;-44
2023/07/12 03:18:59;;;;;;;89.47;53.75;;;20.50;75.90;;;;;;4963128;28;94887;-42
2023/07/12 03:21:25;;;;;;;90.28;54.08;;;20.50;77.70;;;;;;4968456;28;94928;-43
2023/07/12 03:23:51;;;;;;;90.43;53.85;;;20.40;76.80;;;;;;4968414;28;95358;-42
2023/07/12 03:26:16;;;;;;;90.82;54.05;;;20.50;76.80;;;;;;4975967;28;96006;-43
2023/07/12 03:28:42;;;;;;;89.82;54.00;;;20.40;75.80;;;;;;4970979;28;94664;-43
2023/07/12 03:31:11;;;;;;;89.00;53.70;;;20.40;75.40;;;;;;4975237;28;95644;-44
2023/07/12 03:33:37;;;;;;;89.30;54.00;;;20.40;75.40;;;;;;4968464;28;95571;-43
2023/07/12 03:36:04;;;;;;;90.10;54.05;;;20.40;76.40;;;;;;4974878;28;96161;-42
2023/07/12 03:38:30;;;;;;;88.88;53.65;;;20.30;77.20;;;;;;4975431;28;96233;-45
2023/07/12 03:41:00;;;;;;;89.55;53.80;;;20.30;77.10;;;;;;4969652;28;94840;-45
2023/07/12 03:43:26;;;;;;;89.55;53.80;;;20.30;78.40;;;;;;4981792;28;95574;-43
2023/07/12 03:45:53;;;;;;;90.70;54.15;;;20.20;76.70;;;;;;4972814;28;94739;-43
2023/07/12 03:48:19;;;;;;;89.70;54.05;;;20.20;75.90;;;;;;4971958;28;99341;-43
2023/07/12 03:50:48;;;;;;;89.82;54.08;;;20.20;76.30;;;;;;4970910;28;95039;-42
2023/07/12 03:53:14;;;;;;;89.75;53.92;;;20.20;77.30;;;;;;4972621;28;95046;-43
2023/07/12 03:55:42;;;;;;;88.88;53.35;;;20.20;75.90;;;;;;4978420;28;94040;-44
2023/07/12 03:58:09;;;;;;;90.55;54.15;;;20.20;76.40;;;;;;4972972;28;95543;-43
2023/07/12 04:00:38;;;;;;;88.97;53.88;;;20.20;78.60;;;;;;4963834;28;94709;-42
2023/07/12 04:03:04;;;;;;;89.43;53.90;;;20.10;76.60;;;;;;4971289;28;96867;-43
2023/07/12 04:05:29;;;;;;;90.18;53.80;;;20.10;76.10;;;;;;4974033;28;94879;-43
2023/07/12 04:07:56;;;;;;;88.35;53.75;;;20.10;77.50;;;;;;4975534;28;99470;-43
2023/07/12 04:10:22;;;;;;;88.43;53.65;;;20.10;76.50;;;;;;4971267;28;95709;-45
2023/07/12 04:12:48;;;;;;;89.07;53.83;;;20.10;77.70;;;;;;4968448;28;95198;-43
2023/07/12 04:15:14;;;;;;;88.75;53.58;;;20.10;76.70;;;;;;4974591;28;95809;-43
2023/07/12 04:17:39;;;;;;;88.97;53.78;;;20.10;76.50;;;;;;4971167;28;96340;-42
2023/07/12 04:20:05;;;;;;;89.43;53.83;;;20.00;76.30;;;;;;4971669;28;96786;-43
2023/07/12 04:22:31;;;;;;;90.68;53.80;;;20.00;76.30;;;;;;4971736;28;95491;-45
2023/07/12 04:24:57;;;;;;;88.07;53.63;;;20.00;76.90;;;;;;4971567;28;95302;-43
2023/07/12 04:27:23;;;;;;;88.57;53.95;;;20.10;77.10;;;;;;4974080;28;96012;-43
2023/07/12 04:29:49;;;;;;;89.55;53.85;;;20.00;77.40;;;;;;4975073;28;96147;-43
2023/07/12 04:32:14;;;;;;;89.68;54.10;;;20.00;76.00;;;;;;4972000;28;96646;-42
2023/07/12 04:34:40;;;;;;;87.97;53.67;;;20.00;76.40;;;;;;4973887;28;94721;-42
2023/07/12 04:37:06;;;;;;;89.30;53.85;;;20.00;78.20;;;;;;4975618;28;95963;-44
2023/07/12 04:39:32;;;;;;;90.53;54.05;;;20.00;76.70;;;;;;4979452;28;100554;-41
2023/07/12 04:41:58;;;;;;;89.63;54.08;;;20.00;76.60;;;;;;4980217;28;94721;-45
2023/07/12 04:44:25;;;;;;;89.93;53.97;;;20.00;75.60;;;;;;4973258;28;97175;-42
2023/07/12 04:46:51;;;;;;;89.45;53.95;;;20.00;77.70;;;;;;4976169;28;94977;-43
2023/07/12 04:49:16;;;;;;;88.85;53.78;;;20.00;76.90;;;;;;4978665;28;95530;-42
2023/07/12 04:51:42;;;;;;;89.90;53.80;;;20.00;76.10;;;;;;4969420;28;95664;-42
2023/07/12 04:54:07;;;;;;;89.38;54.03;;;20.00;75.60;;;;;;4973554;28;96949;-41
2023/07/12 04:56:33;;;;;;;89.28;53.83;;;20.00;77.40;;;;;;4978783;28;95196;-41
2023/07/12 04:58:59;;;;;;;88.88;53.83;;;20.00;76.50;;;;;;4978032;28;95074;-42
2023/07/12 05:01:24;;;;;;;90.45;53.83;;;20.10;79.10;;;;;;4976874;28;94619;-42
2023/07/12 05:03:50;;;;;;;88.57;53.65;;;20.10;76.20;;;;;;4974122;28;95074;-41
2023/07/12 05:06:15;;;;;;;88.38;53.78;;;20.10;76.90;;;;;;4975613;28;94996;-44
2023/07/12 05:08:41;;;;;;;89.65;54.13;;;20.10;76.40;;;;;;4978427;28;94437;-42
2023/07/12 05:11:07;;;;;;;89.45;53.67;;;20.10;77.90;;;;;;4973865;28;94814;-41
2023/07/12 05:13:33;;;;;;;89.88;53.90;;;20.10;76.30;;;;;;4982499;28;94733;-41
2023/07/12 05:15:59;;;;;;;88.30;53.85;;;20.10;75.60;;;;;;4974801;28;97385;-42
2023/07/12 05:18:25;;;;;;;88.72;53.72;;;20.10;76.80;;;;;;4976602;28;96486;-44
2023/07/12 05:20:52;;;;;;;88.60;53.55;;;20.20;75.70;;;;;;4971804;28;95709;-48
2023/07/12 05:23:19;;;;;;;88.55;53.53;;;20.20;76.40;;;;;;4970819;28;100242;-43
2023/07/12 05:25:52;;;;;;;87.03;53.28;;;20.20;78.10;;;;;;4982492;28;96203;-45
2023/07/12 05:28:18;;;;;;;87.65;53.65;;;20.20;75.70;;;;;;4975419;28;94585;-44
2023/07/12 05:30:44;;;;;;;91.18;54.20;;;20.20;75.30;;;;;;4974690;28;95225;-43
2023/07/12 05:33:09;;;;;;;89.90;53.65;;;20.20;75.00;;;;;;4973244;28;93937;-42
2023/07/12 05:35:35;;;;;;;87.65;53.40;;;20.20;75.90;;;;;;4977880;28;95522;-43
2023/07/12 05:38:02;;;;;;;87.97;53.70;;;20.20;75.00;;;;;;4975425;28;94840;-44
2023/07/12 05:40:29;;;;;;;88.75;53.75;;;20.20;75.30;;;;;;4971061;28;103099;-43
2023/07/12 05:42:55;;;;;;;87.68;53.42;;;20.20;74.90;;;;;;4977655;28;94789;-43
2023/07/12 05:45:21;;;;;;;90.03;53.83;;;20.30;75.90;;;;;;4972558;28;95718;-43
2023/07/12 05:47:47;;;;;;;90.43;53.95;;;20.30;79.10;;;;;;4978539;28;94674;-43
2023/07/12 05:50:15;;;;;;;90.45;53.70;;;20.40;77.20;;;;;;4971015;28;95111;-42
2023/07/12 05:52:41;;;;;;;90.43;53.75;;;20.40;75.80;;;;;;4973496;28;95736;-43
2023/07/12 05:55:09;;;;;;;89.13;53.90;;;20.50;75.00;;;;;;4962969;28;96930;-43
2023/07/12 05:57:35;;;;;;;90.90;54.13;;;20.50;76.10;;;;;;4973733;28;93990;-42
2023/07/12 06:00:01;;;;;;;89.03;53.78;;;20.50;73.90;;;;;;4981151;28;94688;-42
2023/07/12 06:02:27;;;;;;;88.55;53.90;;;20.50;74.40;;;;;;4976747;28;94872;-42
2023/07/12 06:04:52;;;;;;;89.45;53.72;;;20.50;74.10;;;;;;4973613;28;96022;-44
2023/07/12 06:07:18;;;;;;;91.10;53.53;;;20.50;74.00;;;;;;4969250;28;96638;-44
2023/07/12 06:09:44;;;;;;;89.07;53.90;;;20.60;76.50;;;;;;4968081;28;96226;-43
2023/07/12 06:12:10;;;;;;;88.90;54.15;;;20.60;75.10;;;;;;4971376;28;96272;-42
2023/07/12 06:14:36;;;;;;;90.72;53.78;;;20.60;74.60;;;;;;4977849;28;95727;-42
2023/07/12 06:17:03;;;;;;;91.07;53.78;;;20.70;74.60;;;;;;4979058;28;99166;-43
2023/07/12 06:19:29;;;;;;;90.05;53.67;;;20.70;74.10;;;;;;4976116;28;94664;-42
2023/07/12 06:21:55;;;;;;;89.60;53.97;;;20.70;74.70;;;;;;4966322;28;94572;-42
2023/07/12 06:24:20;;;;;;;90.35;54.00;;;20.70;74.10;;;;;;4974176;28;96039;-45
2023/07/12 06:26:46;;;;;;;89.25;53.90;;;20.70;76.40;;;;;;4976867;28;96919;-43
2023/07/12 06:29:11;;;;;;;89.15;54.00;;;20.70;74.60;;;;;;4978368;28;95740;-46
2023/07/12 06:31:37;;;;;;;90.15;54.08;;;20.80;72.50;;;;;;4965897;28;94966;-43
2023/07/12 06:34:03;;;;;;;88.97;53.85;;;20.80;73.70;;;;;;4975295;28;95384;-43
2023/07/12 06:36:32;;;;;;;89.80;53.97;;;20.90;74.20;;;;;;4973827;28;94546;-44
2023/07/12 06:38:58;;;;;;;91.47;54.33;;;20.90;75.40;;;;;;4974569;28;95142;-43
2023/07/12 06:41:24;;;;;;;90.03;54.13;;;20.90;73.70;;;;;;4970111;28;95042;-45
2023/07/12 06:43:49;;;;;;;89.03;53.95;;;21.00;73.80;;;;;;4966999;28;95370;-43
2023/07/12 06:46:15;;;;;;;89.55;54.33;;;21.00;73.10;;;;;;4973702;28;94328;-43
2023/07/12 06:48:41;;;;;;;90.35;54.15;;;21.00;73.80;;;;;;4974652;28;100852;-44
2023/07/12 06:51:06;;;;;;;90.75;54.42;;;21.10;72.40;;;;;;4970035;28;94663;-43
2023/07/12 06:53:32;;;;;;;90.25;54.10;;;21.10;72.10;;;;;;4970770;28;97547;-43
2023/07/12 06:55:58;;;;;;;90.90;54.35;;;21.10;72.30;;;;;;4975548;28;96242;-43
2023/07/12 06:58:24;;;;;;;98.88;57.53;;;21.10;74.20;;;;;;4978407;28;95435;-42
2023/07/12 07:00:50;;;;;;;90.85;55.15;;;21.10;72.10;;;;;;4973589;28;99013;-46
2023/07/12 07:03:16;;;;;;;92.35;55.58;;;21.10;72.10;;;;;;4978003;28;96105;-46
2023/07/12 07:05:44;;;;;;;94.38;56.60;;;21.20;73.20;;;;;;4972955;28;96567;-43
2023/07/12 07:08:15;;;;;;;92.65;55.22;;;21.10;72.10;;;;;;4976385;28;95891;-45
2023/07/12 07:10:41;;;;;;;94.88;55.67;;;21.20;72.50;;;;;;4974079;28;97095;-45
2023/07/12 07:13:08;;;;;;;90.90;55.03;;;21.20;73.90;;;;;;4967623;28;95254;-45
2023/07/12 07:15:34;;;;;;;91.32;54.45;;;21.20;72.90;;;;;;4973825;28;95012;-43
2023/07/12 07:17:59;;;;;;;90.82;54.75;;;21.30;74.80;;;;;;4978938;28;95737;-43
2023/07/12 07:20:27;;;;;;;91.55;55.47;;;21.40;74.20;;;;;;4982141;28;100476;-45
2023/07/12 07:22:53;;;;;;;92.28;54.60;;;21.40;71.30;;;;;;4972506;28;94736;-44
2023/07/12 07:25:18;;;;;;;93.97;54.72;;;21.40;73.70;;;;;;4978608;28;94946;-46
2023/07/12 07:27:44;;;;;;;90.53;55.00;;;21.40;71.50;;;;;;4976665;28;94545;-46
2023/07/12 07:30:11;;;;;;;91.50;54.75;;;21.50;71.70;;;;;;4980642;28;94654;-46
2023/07/12 07:32:37;;;;;;;92.65;54.78;;;21.50;71.50;;;;;;4969526;28;98186;-42
2023/07/12 07:35:03;;;;;;;91.97;54.90;;;21.50;70.20;;;;;;4975048;28;94453;-43
2023/07/12 07:37:29;;;;;;;91.72;54.75;;;21.50;71.50;;;;;;4967559;28;95086;-43
2023/07/12 07:39:55;;;;;;;91.60;54.53;;;21.60;73.10;;;;;;4971980;28;95000;-44
2023/07/12 07:42:20;;;;;;;92.70;55.25;;;21.70;73.40;;;;;;4977285;28;95832;-45
2023/07/12 07:44:46;;;;;;;92.82;55.00;;;21.80;73.40;;;;;;4979323;28;96776;-45
2023/07/12 07:47:11;;;;;;;92.80;54.80;;;21.90;71.60;;;;;;4978874;28;94840;-44
2023/07/12 07:49:37;;;;;;;94.82;55.05;;;21.90;71.50;;;;;;4977948;28;94851;-46
2023/07/12 07:52:04;;;;;;;94.55;55.10;;;21.90;71.30;;;;;;4975643;28;94678;-45
2023/07/12 07:54:29;;;;;;;92.13;54.60;;;21.90;70.90;;;;;;4976908;28;97040;-45
2023/07/12 07:56:55;;;;;;;96.03;55.15;;;21.90;70.40;;;;;;4977015;28;95727;-44
2023/07/12 07:59:21;;;;;;;93.30;55.40;;;22.00;70.00;;;;;;4981065;28;94058;-46
2023/07/12 08:01:47;;;;;;;94.90;54.88;;;22.00;69.50;;;;;;4979084;28;95030;-44
2023/07/12 08:04:13;;;;;;;94.35;55.25;;;22.10;69.30;;;;;;4973169;28;95573;-43
2023/07/12 08:06:39;;;;;;;97.18;55.33;;;22.10;69.00;;;;;;4973534;28;96987;-43
2023/07/12 08:09:06;;;;;;;95.38;54.92;;;22.10;68.50;;;;;;4973795;28;95062;-43
2023/07/12 08:11:32;;;;;;;95.75;54.75;;;22.10;68.10;;;;;;4983121;28;95134;-44
2023/07/12 08:13:58;;;;;;;95.40;55.17;;;22.20;68.00;;;;;;4976574;28;95045;-45
2023/07/12 08:16:27;;;;;;;97.75;55.30;;;22.20;68.10;;;;;;4969232;28;94941;-46
2023/07/12 08:18:53;;;;;;;93.70;54.92;;;22.20;67.20;;;;;;4974698;28;101064;-43
2023/07/12 08:21:19;;;;;;;93.25;54.88;;;22.20;67.00;;;;;;4975409;28;95077;-45
2023/07/12 08:23:45;;;;;;;95.00;55.38;;;22.30;67.90;;;;;;4983962;28;94511;-44
2023/07/12 08:26:11;;;;;;;95.57;55.65;;;22.30;67.00;;;;;;4979596;28;95317;-44
2023/07/12 08:28:37;;;;;;;95.10;55.20;;;22.30;66.20;;;;;;4974974;28;100144;-44
2023/07/12 08:31:02;;;;;;;95.25;55.00;;;22.30;66.10;;;;;;4974574;28;95664;-44
2023/07/12 08:33:28;;;;;;;98.57;55.40;;;22.30;66.40;;;;;;4977739;28;94794;-44
2023/07/12 08:35:54;;;;;;;94.25;55.28;;;22.30;65.70;;;;;;4970079;28;95114;-44
2023/07/12 08:38:19;;;;;;;93.82;55.13;;;22.40;65.90;;;;;;4980279;28;94936;-43
2023/07/12 08:40:49;;;;;;;96.68;55.40;;;22.40;65.50;;;;;;4975991;28;94927;-45
2023/07/12 08:43:27;;;;;;;94.47;55.40;;;22.40;64.70;;;;;;4969891;28;95328;-43
2023/07/12 08:45:56;;;;;;;103.75;57.47;;;22.50;64.90;;;;;;4965053;28;94719;-43
2023/07/12 08:48:23;;;;;;;105.75;57.75;;;22.50;64.40;;;;;;4975572;28;94421;-44
2023/07/12 08:50:50;;;;;;;102.13;57.85;;;22.60;64.60;;;;;;4965061;28;95335;-44
2023/07/12 08:53:22;;;;;;;99.85;57.05;;;22.60;64.00;;;;;;4968511;28;96743;-47
2023/07/12 08:55:49;;;;;;;99.07;56.40;;;22.70;63.90;;;;;;4968956;28;96757;-46
2023/07/12 08:58:26;;;;;;;99.78;56.40;;;22.70;63.60;;;;;;4973235;28;95145;-42
2023/07/12 09:01:09;;;;;;;96.90;55.88;;;22.80;64.00;;;;;;4965191;28;98301;-44
2023/07/12 09:03:35;;;;;;;99.45;55.90;;;22.80;62.80;;;;;;4963222;28;95000;-43
2023/07/12 09:06:01;;;;;;;93.05;55.40;;;22.80;62.90;;;;;;4971621;28;94975;-42
2023/07/12 09:08:37;;;;;;;93.30;55.35;;;22.80;64.00;;;;;;4978507;28;96609;-43
2023/07/12 09:11:11;;;;;;;93.93;55.10;;;22.80;62.80;;;;;;4968855;28;95065;-44
2023/07/12 09:13:38;;;;;;;95.78;55.33;;;22.80;61.30;;;;;;4961055;28;97139;-42
2023/07/12 09:16:20;;;;;;;91.85;54.70;;;22.80;60.50;;;;;;4961415;28;98868;-43
2023/07/12 09:18:46;;;;;;;96.32;55.08;;;22.70;61.90;;;;;;4965933;28;95587;-43
2023/07/12 09:21:20;;;;;;;95.53;55.33;;;22.70;61.60;;;;;;4962591;28;98333;-42
2023/07/12 09:23:46;;;;;;;96.47;55.08;;;22.80;61.90;;;;;;4966222;28;95203;-43
2023/07/12 09:26:17;;;;;;;94.18;55.22;;;22.80;62.60;;;;;;4971918;28;96828;-43
2023/07/12 09:28:43;;;;;;;95.07;55.15;;;22.80;62.90;;;;;;4972090;28;95666;-43
2023/07/12 09:31:12;;;;;;;96.28;55.42;;;22.80;62.90;;;;;;4967263;28;95046;-43
2023/07/12 09:33:37;;;;;;;95.05;55.13;;;22.80;61.30;;;;;;4967958;28;95877;-44
2023/07/12 09:36:06;;;;;;;98.45;55.00;;;22.80;62.10;;;;;;4975911;28;96657;-44
2023/07/12 09:38:36;;;;;;;93.03;55.10;;;22.90;61.70;;;;;;4966597;28;94483;-43
2023/07/12 09:41:09;;;;;;;93.10;55.05;;;22.80;59.40;;;;;;4971388;28;94676;-47
2023/07/12 09:43:38;;;;;;;92.80;54.95;;;22.90;58.70;;;;;;4971923;28;96390;-46
2023/07/12 09:46:27;;;;;;;95.70;54.85;;;22.90;57.60;;;;;;4976024;28;95774;-43
2023/07/12 09:49:05;;;;;;;93.15;55.05;;;23.00;56.90;;;;;;4966471;28;94538;-40
2023/07/12 09:52:00;;;;;;;93.55;55.08;;;23.00;55.70;;;;;;4968579;28;99924;-49
2023/07/12 09:55:03;;;;;;;92.47;54.65;;;22.80;55.90;;;;;;4968105;28;95203;-42
2023/07/12 09:57:50;;;;;;;94.05;55.15;;;22.70;57.60;;;;;;4929627;28;97743;-44
2023/07/12 10:00:37;;;;;;;95.78;54.80;;;22.90;57.60;;;;;;4968788;28;94911;-44
2023/07/12 10:03:10;;;;;;;91.68;54.65;;;23.00;55.60;;;;;;4966183;28;95192;-44
2023/07/12 10:05:38;;;;;;;93.93;55.20;;;23.00;55.00;;;;;;4972719;28;97188;-45
2023/07/12 10:08:13;;;;;;;92.85;54.75;;;23.10;56.00;;;;;;4967179;28;94818;-43
2023/07/12 10:10:57;;;;;;;92.45;54.88;;;23.10;56.20;;;;;;4965850;28;95708;-41
2023/07/12 10:13:43;;;;;;;95.85;54.90;;;23.10;56.50;;;;;;4967062;28;96294;-41
2023/07/12 10:16:34;;;;;;;92.75;54.55;;;23.00;55.90;;;;;;4966056;28;94949;-42
2023/07/12 10:19:18;;;;;;;92.15;54.75;;;22.90;56.30;;;;;;4967179;28;99037;-43
2023/07/12 10:21:43;;;;;;;92.43;54.65;;;23.00;56.70;;;;;;4972143;28;101630;-50
2023/07/12 10:24:15;;;;;;;90.93;54.53;;;23.00;56.90;;;;;;4970531;28;99110;-43
2023/07/12 10:26:43;;;;;;;92.57;54.85;;;23.00;57.10;;;;;;4977910;28;95388;-45
2023/07/12 10:29:47;;;;;;;93.22;54.85;;;23.00;54.20;;;;;;4979568;28;94785;-46
2023/07/12 10:32:26;;;;;;;92.22;54.97;;;23.10;56.60;;;;;;4966147;28;94320;-47
2023/07/12 10:35:03;;;;;;;91.30;55.08;;;23.20;56.80;;;;;;4975261;28;96142;-50
2023/07/12 10:37:39;;;;;;;92.47;54.78;;;23.10;55.20;;;;;;4973692;28;95002;-45
2023/07/12 10:40:14;;;;;;;91.20;54.63;;;23.10;56.60;;;;;;4980127;28;95986;-46
2023/07/12 10:42:56;;;;;;;92.65;54.95;;;23.10;56.40;;;;;;4981404;28;95809;-52
2023/07/12 10:45:26;;;;;;;90.80;54.78;;;23.20;56.60;;;;;;4972370;28;95330;-44
2023/07/12 10:47:53;;;;;;;92.20;54.83;;;23.10;54.40;;;;;;4964034;28;95194;-45
2023/07/12 10:50:35;;;;;;;92.82;54.72;;;23.10;54.50;;;;;;4955224;28;96500;-45
2023/07/12 10:53:20;;;;;;;92.10;55.05;;;23.30;55.30;;;;;;4964426;28;96093;-44
2023/07/12 10:56:06;;;;;;;93.38;55.05;;;23.40;53.20;;;;;;4963462;28;97681;-43
2023/07/12 10:58:46;;;;;;;92.82;54.90;;;23.50;54.00;;;;;;4962123;28;97612;-45
2023/07/12 11:01:37;;;;;;;94.80;55.10;;;23.50;53.50;;;;;;4964677;28;100587;-43
2023/07/12 11:04:15;;;;;;;92.32;54.95;;;23.70;54.60;;;;;;4965754;28;99294;-45
2023/07/12 11:07:07;;;;;;;93.05;55.15;;;23.70;51.30;;;;;;4963806;28;99590;-43
2023/07/12 11:09:47;;;;;;;95.00;55.00;;;23.70;51.30;;;;;;4967303;28;95923;-43
2023/07/12 11:12:13;;;;;;;91.67;54.77;;;23.60;51.00;;;;;;4953171;28;95611;-43
2023/07/12 11:14:38;;;;;;;94.93;55.38;;;23.50;52.40;;;;;;4967198;28;95728;-42
2023/07/12 11:17:16;;;;;;;91.47;55.05;;;23.50;52.60;;;;;;4967486;28;97719;-43
2023/07/12 11:19:42;;;;;;;93.35;55.05;;;23.60;51.80;;;;;;4965620;28;96169;-43
2023/07/12 11:22:17;;;;;;;93.90;55.05;;;23.50;50.10;;;;;;4958623;28;97181;-43
2023/07/12 11:24:52;;;;;;;91.57;55.10;;;23.50;50.40;;;;;;4961507;28;95651;-43
2023/07/12 11:27:32;;;;;;;92.40;55.10;;;23.40;51.00;;;;;;4956010;28;97053;-43
2023/07/12 11:30:26;;;;;;;94.15;54.97;;;23.40;52.50;;;;;;4962905;28;96983;-43
2023/07/12 11:33:08;;;;;;;94.10;54.80;;;23.50;53.50;;;;;;4963537;28;95789;-41
2023/07/12 11:35:47;;;;;;;94.07;54.92;;;23.60;52.20;;;;;;4964204;28;98563;-44
2023/07/12 11:38:22;;;;;;;93.07;55.38;;;23.70;52.50;;;;;;4964087;28;95735;-44
2023/07/12 11:40:51;;;;;;;93.10;55.20;;;23.80;51.90;;;;;;4962141;28;94990;-46
2023/07/12 11:43:23;;;;;;;95.13;55.63;;;23.80;51.60;;;;;;4958369;28;98604;-41
2023/07/12 11:45:54;;;;;;;93.50;55.47;;;24.00;50.40;;;;;;4960512;28;95162;-45
2023/07/12 11:48:20;;;;;;;94.35;55.42;;;24.00;51.00;;;;;;4960816;28;98056;-42
2023/07/12 11:50:50;;;;;;;93.45;55.22;;;24.00;48.30;;;;;;4959120;28;95371;-43
2023/07/12 11:53:17;;;;;;;94.03;55.70;;;24.00;50.00;;;;;;4958344;28;97829;-43
2023/07/12 11:55:46;;;;;;;93.50;55.30;;;24.00;49.50;;;;;;4960230;28;95584;-40
2023/07/12 11:58:22;;;;;;;94.07;55.58;;;24.10;50.30;;;;;;4958715;28;99069;-42
2023/07/12 12:00:50;;;;;;;93.50;55.65;;;24.20;49.70;;;;;;4963651;28;96384;-44
2023/07/12 12:03:17;;;;;;;98.75;55.47;;;24.20;50.30;;;;;;4956679;28;96129;-44
2023/07/12 12:05:44;;;;;;;94.53;55.17;;;24.20;49.60;;;;;;4954232;28;96128;-43
2023/07/12 12:08:25;;;;;;;94.32;55.30;;;24.30;49.60;;;;;;4957549;28;97734;-44
2023/07/12 12:10:51;;;;;;;92.88;55.33;;;24.40;49.70;;;;;;4963448;28;94692;-45
2023/07/12 12:13:20;;;;;;;95.82;55.15;;;24.40;48.70;;;;;;4960491;28;97948;-44
2023/07/12 12:16:17;;;;;;;93.50;55.30;;;24.40;48.90;;;;;;4960585;28;96499;-43
2023/07/12 12:18:51;;;;;;;93.40;55.35;;;24.40;49.10;;;;;;4955548;28;95470;-42
2023/07/12 12:21:18;;;;;;;93.75;55.35;;;24.20;46.70;;;;;;4953053;28;95012;-44
2023/07/12 12:23:57;;;;;;;93.15;55.72;;;24.20;46.30;;;;;;4951885;28;97383;-45
2023/07/12 12:26:27;;;;;;;93.28;55.25;;;24.30;47.30;;;;;;4956988;28;95548;-43
2023/07/12 12:29:07;;;;;;;93.85;55.17;;;24.40;47.10;;;;;;4956415;28;96751;-45
2023/07/12 12:31:37;;;;;;;93.00;55.43;;;24.30;46.60;;;;;;4958110;28;95544;-42
2023/07/12 12:34:13;;;;;;;96.63;55.53;;;24.30;47.10;;;;;;4959532;28;95465;-45
2023/07/12 12:36:54;;;;;;;95.90;55.70;;;24.30;47.80;;;;;;4963529;28;95044;-42